createdAt,value
2018-04-28T00:00:26.625Z,12.25
2018-04-28T00:01:26.646Z,12.20
2018-04-28T00:02:26.666Z,12.25
2018-04-28T00:03:26.690Z,12.31
2018-04-28T00:04:26.705Z,12.20
2018-04-28T00:05:26.725Z,12.13
2018-04-28T00:06:26.744Z,12.17
2018-04-28T00:07:26.764Z,12.06
2018-04-28T00:08:26.790Z,12.10
2018-04-28T00:09:26.804Z,12.07
2018-04-28T00:10:26.823Z,12.07
2018-04-28T00:11:26.844Z,12.17
2018-04-28T00:12:26.913Z,12.04
2018-04-28T00:13:26.882Z,12.10
2018-04-28T00:14:26.902Z,12.17
2018-04-28T00:15:26.932Z,12.09
2018-04-28T00:16:26.942Z,12.07
2018-04-28T00:17:26.962Z,12.03
2018-04-28T00:18:26.980Z,12.12
2018-04-28T00:19:27.000Z,12.07
2018-04-28T00:20:27.020Z,11.97
2018-04-28T00:21:27.040Z,12.03
2018-04-28T00:22:27.058Z,12.03
2018-04-28T00:23:27.088Z,12.06
2018-04-28T00:24:27.099Z,11.99
2018-04-28T00:25:27.119Z,11.97
2018-04-28T00:26:27.137Z,12.04
2018-04-28T00:27:27.157Z,12.02
2018-04-28T00:28:27.177Z,11.97
2018-04-28T00:29:27.196Z,11.91
2018-04-28T00:30:27.216Z,11.91
2018-04-28T00:31:27.236Z,12.02
2018-04-28T00:32:27.254Z,11.97
2018-04-28T00:33:27.275Z,12.02
2018-04-28T00:34:27.293Z,11.99
2018-04-28T00:35:27.313Z,12.00
2018-04-28T00:36:27.333Z,11.95
2018-04-28T00:37:27.355Z,12.04
2018-04-28T00:38:27.371Z,11.95
2018-04-28T00:39:27.391Z,12.06
2018-04-28T00:40:27.411Z,12.06
2018-04-28T00:41:27.430Z,12.03
2018-04-28T00:42:27.450Z,12.13
2018-04-28T00:43:27.471Z,12.03
2018-04-28T00:44:27.489Z,12.13
2018-04-28T00:45:27.608Z,12.10
2018-04-28T00:46:27.527Z,11.97
2018-04-28T00:47:27.547Z,12.17
2018-04-28T00:48:27.570Z,12.10
2018-04-28T00:49:27.586Z,12.07
2018-04-28T00:50:27.605Z,12.10
2018-04-28T00:51:27.624Z,12.07
2018-04-28T00:52:27.645Z,12.09
2018-04-28T00:53:27.666Z,12.10
2018-04-28T00:54:27.683Z,12.13
2018-04-28T00:55:27.703Z,12.13
2018-04-28T00:56:27.726Z,12.07
2018-04-28T00:57:27.743Z,12.10
2018-04-28T00:58:27.762Z,12.10
2018-04-28T00:59:27.781Z,12.07
2018-04-28T01:00:27.801Z,12.09
2018-04-28T01:01:27.823Z,12.15
2018-04-28T01:02:27.840Z,12.07
2018-04-28T01:03:27.863Z,12.10
2018-04-28T01:04:27.880Z,12.10
2018-04-28T01:05:27.899Z,12.13
2018-04-28T01:06:27.918Z,12.10
2018-04-28T01:07:27.939Z,12.06
2018-04-28T01:08:27.958Z,12.13
2018-04-28T01:09:27.982Z,12.13
2018-04-28T01:10:27.996Z,12.13
2018-04-28T01:11:28.020Z,12.18
2018-04-28T01:12:28.040Z,12.28
2018-04-28T01:13:28.056Z,12.22
2018-04-28T01:14:28.076Z,12.27
2018-04-28T01:15:28.094Z,12.22
2018-04-28T01:16:28.114Z,12.29
2018-04-28T01:17:28.135Z,12.25
2018-04-28T01:18:28.156Z,12.29
2018-04-28T01:19:28.174Z,12.37
2018-04-28T01:20:28.194Z,12.35
2018-04-28T01:21:28.214Z,12.53
2018-04-28T01:22:28.232Z,12.53
2018-04-28T01:23:28.253Z,12.61
2018-04-28T01:24:28.273Z,12.75
2018-04-28T01:25:28.292Z,12.72
2018-04-28T01:26:28.313Z,12.72
2018-04-28T01:27:28.333Z,12.76
2018-04-28T01:28:28.351Z,12.86
2018-04-28T01:29:28.371Z,12.85
2018-04-28T01:30:28.389Z,12.85
2018-04-28T01:31:28.411Z,12.82
2018-04-28T01:32:28.431Z,12.86
2018-04-28T01:33:28.451Z,12.91
2018-04-28T01:34:28.470Z,12.83
2018-04-28T01:35:28.490Z,12.91
2018-04-28T01:36:28.510Z,12.87
2018-04-28T01:37:28.530Z,12.93
2018-04-28T01:38:28.549Z,12.91
2018-04-28T01:39:28.571Z,12.94
2018-04-28T01:40:28.593Z,12.91
2018-04-28T01:41:28.611Z,12.95
2018-04-28T01:42:28.629Z,12.91
2018-04-28T01:43:28.649Z,12.97
2018-04-28T01:44:28.669Z,12.91
2018-04-28T01:45:28.690Z,12.97
2018-04-28T01:46:28.710Z,13.01
2018-04-28T01:47:28.728Z,12.98
2018-04-28T01:48:28.749Z,13.04
2018-04-28T01:49:28.769Z,12.95
2018-04-28T01:50:28.788Z,13.03
2018-04-28T01:51:28.808Z,12.94
2018-04-28T01:52:28.828Z,12.93
2018-04-28T01:53:28.849Z,12.98
2018-04-28T01:54:28.868Z,12.97
2018-04-28T01:55:28.892Z,12.95
2018-04-28T01:56:28.914Z,12.94
2018-04-28T01:57:28.928Z,12.98
2018-04-28T01:58:28.952Z,12.98
2018-04-28T01:59:28.968Z,13.04
2018-04-28T02:00:28.990Z,12.94
2018-04-28T02:01:29.008Z,12.95
2018-04-28T02:02:29.028Z,12.90
2018-04-28T02:03:29.048Z,12.85
2018-04-28T02:04:29.073Z,12.86
2018-04-28T02:05:29.091Z,12.85
2018-04-28T02:06:29.109Z,12.86
2018-04-28T02:07:29.134Z,12.87
2018-04-28T02:08:29.149Z,12.87
2018-04-28T02:09:29.168Z,12.83
2018-04-28T02:10:29.189Z,12.80
2018-04-28T02:11:29.209Z,12.73
2018-04-28T02:12:29.229Z,12.85
2018-04-28T02:13:29.249Z,12.75
2018-04-28T02:14:29.268Z,12.75
2018-04-28T02:15:29.289Z,12.72
2018-04-28T02:16:29.308Z,12.75
2018-04-28T02:17:29.329Z,12.70
2018-04-28T02:18:29.349Z,12.75
2018-04-28T02:19:29.369Z,12.65
2018-04-28T02:20:29.388Z,12.72
2018-04-28T02:21:29.410Z,12.75
2018-04-28T02:22:29.428Z,12.70
2018-04-28T02:23:29.449Z,12.75
2018-04-28T02:24:29.472Z,12.65
2018-04-28T02:25:29.490Z,12.73
2018-04-28T02:26:29.509Z,12.65
2018-04-28T02:27:29.530Z,12.78
2018-04-28T02:28:29.549Z,12.79
2018-04-28T02:29:29.571Z,12.73
2018-04-28T02:30:29.592Z,12.73
2018-04-28T02:31:29.612Z,12.80
2018-04-28T02:32:29.629Z,12.76
2018-04-28T02:33:29.650Z,12.83
2018-04-28T02:34:29.669Z,12.85
2018-04-28T02:35:29.689Z,12.85
2018-04-28T02:36:29.710Z,12.83
2018-04-28T02:37:29.729Z,12.87
2018-04-28T02:38:29.749Z,12.85
2018-04-28T02:39:29.768Z,12.87
2018-04-28T02:40:29.789Z,12.87
2018-04-28T02:41:29.809Z,12.85
2018-04-28T02:42:29.827Z,12.82
2018-04-28T02:43:29.856Z,12.91
2018-04-28T02:44:29.869Z,12.85
2018-04-28T02:45:29.889Z,12.87
2018-04-28T02:46:29.908Z,12.82
2018-04-28T02:47:29.928Z,12.91
2018-04-28T02:48:29.949Z,12.86
2018-04-28T02:49:29.969Z,12.86
2018-04-28T02:50:30.010Z,12.90
2018-04-28T02:51:30.008Z,12.85
2018-04-28T02:52:30.028Z,12.82
2018-04-28T02:53:30.050Z,12.76
2018-04-28T02:54:30.068Z,12.80
2018-04-28T02:55:30.088Z,12.75
2018-04-28T02:56:30.110Z,12.75
2018-04-28T02:57:30.128Z,12.91
2018-04-28T02:58:30.147Z,12.76
2018-04-28T02:59:30.173Z,12.79
2018-04-28T03:00:30.188Z,12.82
2018-04-28T03:01:30.211Z,12.90
2018-04-28T03:02:30.227Z,12.78
2018-04-28T03:03:30.247Z,12.82
2018-04-28T03:04:30.270Z,12.73
2018-04-28T03:05:30.287Z,12.78
2018-04-28T03:06:30.306Z,12.78
2018-04-28T03:07:30.326Z,12.64
2018-04-28T03:08:30.347Z,12.75
2018-04-28T03:09:30.367Z,12.73
2018-04-28T03:10:30.393Z,12.78
2018-04-28T03:11:30.406Z,12.64
2018-04-28T03:12:30.427Z,12.75
2018-04-28T03:13:30.446Z,12.73
2018-04-28T03:14:30.466Z,12.75
2018-04-28T03:15:30.485Z,12.70
2018-04-28T03:16:30.505Z,12.79
2018-04-28T03:17:30.525Z,12.78
2018-04-28T03:18:30.545Z,12.75
2018-04-28T03:19:30.566Z,12.73
2018-04-28T03:20:30.585Z,12.73
2018-04-28T03:21:30.604Z,12.61
2018-04-28T03:22:30.624Z,12.70
2018-04-28T03:23:30.647Z,12.65
2018-04-28T03:24:30.664Z,12.62
2018-04-28T03:25:30.684Z,12.64
2018-04-28T03:26:30.704Z,12.67
2018-04-28T03:27:30.724Z,12.60
2018-04-28T03:28:30.745Z,12.60
2018-04-28T03:29:30.763Z,12.49
2018-04-28T03:30:30.783Z,12.53
2018-04-28T03:31:30.803Z,12.53
2018-04-28T03:32:30.823Z,12.57
2018-04-28T03:33:30.843Z,12.61
2018-04-28T03:34:30.862Z,12.61
2018-04-28T03:35:30.883Z,12.53
2018-04-28T03:36:30.909Z,12.50
2018-04-28T03:37:30.922Z,12.55
2018-04-28T03:38:30.941Z,12.57
2018-04-28T03:39:30.964Z,12.55
2018-04-28T03:40:30.981Z,12.49
2018-04-28T03:41:31.004Z,12.47
2018-04-28T03:42:31.021Z,12.55
2018-04-28T03:43:31.041Z,12.53
2018-04-28T03:44:31.061Z,12.58
2018-04-28T03:45:31.081Z,12.55
2018-04-28T03:46:31.100Z,12.55
2018-04-28T03:47:31.121Z,12.60
2018-04-28T03:48:31.140Z,12.58
2018-04-28T03:49:31.161Z,12.53
2018-04-28T03:50:31.183Z,12.50
2018-04-28T03:51:31.199Z,12.60
2018-04-28T03:52:31.220Z,12.65
2018-04-28T03:53:31.272Z,12.60
2018-04-28T03:54:31.258Z,12.64
2018-04-28T03:55:31.279Z,12.65
2018-04-28T03:56:31.298Z,12.67
2018-04-28T03:57:31.320Z,12.62
2018-04-28T03:58:31.338Z,12.62
2018-04-28T03:59:31.357Z,12.57
2018-04-28T04:00:31.378Z,12.64
2018-04-28T04:01:31.398Z,12.62
2018-04-28T04:02:31.416Z,12.73
2018-04-28T04:03:31.441Z,12.78
2018-04-28T04:04:31.456Z,12.73
2018-04-28T04:05:31.477Z,12.78
2018-04-28T04:06:31.496Z,12.73
2018-04-28T04:07:31.516Z,12.73
2018-04-28T04:08:31.536Z,12.79
2018-04-28T04:09:31.556Z,12.76
2018-04-28T04:10:31.574Z,12.79
2018-04-28T04:11:31.596Z,12.76
2018-04-28T04:12:31.615Z,12.79
2018-04-28T04:13:31.636Z,12.76
2018-04-28T04:14:31.655Z,12.72
2018-04-28T04:15:31.675Z,12.76
2018-04-28T04:16:31.696Z,12.75
2018-04-28T04:17:31.715Z,12.73
2018-04-28T04:18:31.734Z,12.62
2018-04-28T04:19:31.754Z,12.73
2018-04-28T04:20:31.774Z,12.72
2018-04-28T04:21:31.795Z,12.75
2018-04-28T04:22:31.815Z,12.62
2018-04-28T04:23:31.833Z,12.73
2018-04-28T04:24:31.854Z,12.73
2018-04-28T04:25:31.875Z,12.72
2018-04-28T04:26:31.961Z,12.72
2018-04-28T04:27:31.913Z,12.72
2018-04-28T04:28:31.935Z,12.72
2018-04-28T04:29:31.954Z,12.67
2018-04-28T04:30:31.973Z,12.78
2018-04-28T04:31:31.992Z,12.76
2018-04-28T04:32:32.014Z,12.78
2018-04-28T04:33:32.032Z,12.82
2018-04-28T04:34:32.053Z,12.85
2018-04-28T04:35:32.072Z,12.86
2018-04-28T04:36:32.093Z,12.93
2018-04-28T04:37:32.113Z,12.94
2018-04-28T04:38:32.132Z,12.93
2018-04-28T04:39:32.153Z,12.93
2018-04-28T04:40:32.172Z,13.00
2018-04-28T04:41:32.197Z,13.08
2018-04-28T04:42:32.213Z,13.00
2018-04-28T04:43:32.233Z,13.15
2018-04-28T04:44:32.254Z,13.09
2018-04-28T04:45:32.277Z,13.09
2018-04-28T04:46:32.293Z,13.08
2018-04-28T04:47:32.313Z,13.12
2018-04-28T04:48:32.333Z,13.04
2018-04-28T04:49:32.395Z,13.09
2018-04-28T04:50:32.373Z,12.97
2018-04-28T04:51:32.392Z,12.98
2018-04-28T04:52:32.413Z,13.08
2018-04-28T04:53:32.434Z,13.08
2018-04-28T04:54:32.454Z,13.09
2018-04-28T04:55:32.473Z,13.04
2018-04-28T04:56:32.494Z,13.11
2018-04-28T04:57:32.515Z,13.16
2018-04-28T04:58:32.534Z,13.12
2018-04-28T04:59:32.554Z,13.15
2018-04-28T05:00:32.578Z,13.22
2018-04-28T05:01:32.595Z,13.27
2018-04-28T05:02:32.615Z,13.27
2018-04-28T05:03:32.635Z,13.13
2018-04-28T05:04:32.656Z,13.31
2018-04-28T05:05:32.676Z,13.16
2018-04-28T05:06:32.695Z,13.28
2018-04-28T05:07:32.716Z,13.25
2018-04-28T05:08:32.797Z,13.22
2018-04-28T05:09:32.761Z,13.25
2018-04-28T05:10:32.776Z,13.28
2018-04-28T05:11:32.796Z,13.27
2018-04-28T05:12:32.817Z,13.37
2018-04-28T05:13:32.838Z,13.33
2018-04-28T05:14:32.857Z,13.37
2018-04-28T05:15:32.878Z,13.22
2018-04-28T05:16:32.898Z,13.31
2018-04-28T05:17:32.919Z,13.31
2018-04-28T05:18:32.941Z,13.42
2018-04-28T05:19:32.959Z,13.33
2018-04-28T05:20:32.980Z,13.28
2018-04-28T05:21:33.001Z,13.30
2018-04-28T05:22:33.021Z,13.33
2018-04-28T05:23:33.041Z,13.39
2018-04-28T05:24:33.062Z,13.47
2018-04-28T05:25:33.082Z,13.39
2018-04-28T05:26:33.102Z,13.52
2018-04-28T05:27:33.123Z,13.56
2018-04-28T05:28:33.143Z,13.60
2018-04-28T05:29:33.167Z,13.53
2018-04-28T05:30:33.186Z,13.62
2018-04-28T05:31:33.205Z,13.72
2018-04-28T05:32:33.228Z,13.78
2018-04-28T05:33:33.246Z,13.87
2018-04-28T05:34:33.267Z,13.97
2018-04-28T05:35:33.287Z,14.03
2018-04-28T05:36:33.309Z,14.07
2018-04-28T05:37:33.331Z,14.05
2018-04-28T05:38:33.353Z,14.08
2018-04-28T05:39:33.373Z,14.12
2018-04-28T05:40:33.394Z,14.14
2018-04-28T05:41:33.413Z,14.18
2018-04-28T05:42:33.434Z,14.12
2018-04-28T05:43:33.455Z,14.20
2018-04-28T05:44:33.475Z,14.12
2018-04-28T05:45:33.497Z,14.17
2018-04-28T05:46:33.519Z,14.17
2018-04-28T05:47:33.543Z,14.22
2018-04-28T05:48:33.561Z,14.15
2018-04-28T05:49:33.586Z,14.17
2018-04-28T05:50:33.603Z,14.35
2018-04-28T05:51:33.624Z,14.45
2018-04-28T05:52:33.646Z,14.41
2018-04-28T05:53:33.668Z,14.47
2018-04-28T05:54:33.688Z,14.50
2018-04-28T05:55:33.710Z,14.54
2018-04-28T05:56:33.732Z,14.62
2018-04-28T05:57:33.753Z,14.60
2018-04-28T05:58:33.774Z,14.59
2018-04-28T05:59:33.796Z,14.62
2018-04-28T06:00:33.818Z,14.63
2018-04-28T06:01:33.840Z,14.59
2018-04-28T06:02:33.862Z,14.68
2018-04-28T06:03:33.882Z,14.72
2018-04-28T06:04:33.904Z,14.69
2018-04-28T06:05:33.926Z,14.77
2018-04-28T06:06:33.947Z,14.84
2018-04-28T06:07:33.968Z,14.85
2018-04-28T06:08:33.990Z,14.85
2018-04-28T06:09:34.013Z,14.89
2018-04-28T06:10:34.033Z,14.85
2018-04-28T06:11:34.055Z,14.94
2018-04-28T06:12:34.077Z,14.91
2018-04-28T06:13:34.099Z,14.92
2018-04-28T06:14:34.119Z,14.94
2018-04-28T06:15:34.141Z,14.92
2018-04-28T06:16:34.163Z,14.91
2018-04-28T06:17:34.185Z,14.91
2018-04-28T06:18:34.206Z,14.92
2018-04-28T06:19:34.230Z,15.10
2018-04-28T06:20:34.250Z,15.09
2018-04-28T06:21:34.272Z,15.17
2018-04-28T06:22:34.295Z,15.18
2018-04-28T06:23:34.315Z,15.10
2018-04-28T06:24:34.337Z,15.18
2018-04-28T06:25:34.357Z,15.18
2018-04-28T06:26:34.380Z,15.07
2018-04-28T06:27:34.401Z,15.07
2018-04-28T06:28:34.423Z,14.94
2018-04-28T06:29:34.445Z,14.96
2018-04-28T06:30:34.465Z,15.03
2018-04-28T06:31:34.488Z,15.07
2018-04-28T06:32:34.510Z,14.99
2018-04-28T06:33:34.536Z,15.18
2018-04-28T06:34:34.557Z,15.14
2018-04-28T06:35:34.576Z,15.18
2018-04-28T06:36:34.600Z,15.17
2018-04-28T06:37:34.620Z,15.27
2018-04-28T06:38:34.642Z,15.27
2018-04-28T06:39:34.666Z,15.11
2018-04-28T06:40:34.684Z,15.15
2018-04-28T06:41:34.706Z,15.14
2018-04-28T06:42:34.727Z,15.18
2018-04-28T06:43:34.749Z,15.40
2018-04-28T06:44:34.773Z,15.37
2018-04-28T06:45:34.794Z,15.52
2018-04-28T06:46:34.814Z,15.33
2018-04-28T06:47:34.838Z,15.54
2018-04-28T06:48:34.858Z,15.55
2018-04-28T06:49:34.881Z,15.57
2018-04-28T06:50:34.905Z,15.62
2018-04-28T06:51:34.927Z,15.65
2018-04-28T06:52:34.949Z,15.61
2018-04-28T06:53:34.970Z,15.58
2018-04-28T06:54:34.998Z,15.67
2018-04-28T06:55:35.013Z,15.59
2018-04-28T06:56:35.040Z,15.57
2018-04-28T06:57:35.060Z,15.67
2018-04-28T06:58:35.164Z,15.70
2018-04-28T06:59:35.101Z,15.82
2018-04-28T07:00:35.125Z,15.82
2018-04-28T07:01:35.147Z,15.79
2018-04-28T07:02:35.168Z,15.94
2018-04-28T07:03:35.191Z,15.90
2018-04-28T07:04:35.269Z,15.86
2018-04-28T07:05:35.235Z,15.73
2018-04-28T07:06:35.257Z,15.70
2018-04-28T07:07:35.280Z,15.77
2018-04-28T07:08:35.305Z,15.95
2018-04-28T07:09:35.325Z,15.82
2018-04-28T07:10:35.346Z,15.83
2018-04-28T07:11:35.368Z,15.88
2018-04-28T07:12:35.392Z,16.05
2018-04-28T07:13:35.414Z,16.15
2018-04-28T07:14:35.434Z,16.09
2018-04-28T07:15:35.458Z,16.00
2018-04-28T07:16:35.480Z,16.09
2018-04-28T07:17:35.503Z,16.26
2018-04-28T07:18:35.525Z,16.28
2018-04-28T07:19:35.548Z,16.35
2018-04-28T07:20:35.570Z,16.29
2018-04-28T07:21:35.593Z,16.33
2018-04-28T07:22:35.615Z,16.26
2018-04-28T07:23:35.638Z,16.12
2018-04-28T07:24:35.660Z,16.13
2018-04-28T07:25:35.683Z,16.15
2018-04-28T07:26:35.706Z,16.23
2018-04-28T07:27:35.727Z,16.12
2018-04-28T07:28:35.753Z,16.12
2018-04-28T07:29:35.773Z,15.97
2018-04-28T07:30:35.795Z,15.95
2018-04-28T07:31:35.819Z,16.02
2018-04-28T07:32:35.841Z,16.17
2018-04-28T07:33:35.864Z,16.20
2018-04-28T07:34:35.886Z,16.24
2018-04-28T07:35:35.909Z,16.15
2018-04-28T07:36:35.932Z,16.23
2018-04-28T07:37:35.957Z,16.35
2018-04-28T07:38:35.977Z,16.32
2018-04-28T07:39:36.002Z,16.29
2018-04-28T07:40:36.024Z,16.38
2018-04-28T07:41:36.047Z,16.41
2018-04-28T07:42:36.069Z,16.64
2018-04-28T07:43:36.093Z,16.83
2018-04-28T07:44:36.115Z,16.83
2018-04-28T07:45:36.139Z,16.93
2018-04-28T07:46:36.161Z,17.12
2018-04-28T07:47:36.268Z,17.08
2018-04-28T07:48:36.208Z,17.08
2018-04-28T07:49:36.231Z,17.11
2018-04-28T07:50:36.254Z,17.14
2018-04-28T07:51:36.277Z,17.20
2018-04-28T07:52:36.300Z,17.12
2018-04-28T07:53:36.325Z,17.19
2018-04-28T07:54:36.347Z,17.11
2018-04-28T07:55:36.371Z,16.94
2018-04-28T07:56:36.394Z,16.94
2018-04-28T07:57:36.419Z,16.99
2018-04-28T07:58:36.445Z,16.91
2018-04-28T07:59:36.464Z,16.94
2018-04-28T08:00:36.489Z,17.14
2018-04-28T08:01:36.513Z,17.08
2018-04-28T08:02:36.536Z,17.16
2018-04-28T08:03:36.559Z,17.08
2018-04-28T08:04:36.583Z,16.96
2018-04-28T08:05:36.607Z,16.91
2018-04-28T08:06:36.630Z,17.05
2018-04-28T08:07:36.653Z,17.15
2018-04-28T08:08:36.678Z,17.19
2018-04-28T08:09:36.701Z,16.94
2018-04-28T08:10:36.727Z,16.91
2018-04-28T08:11:36.747Z,16.91
2018-04-28T08:12:36.805Z,16.87
2018-04-28T08:13:36.796Z,16.83
2018-04-28T08:14:36.817Z,16.90
2018-04-28T08:15:36.842Z,16.96
2018-04-28T08:16:36.866Z,16.91
2018-04-28T08:17:36.890Z,16.93
2018-04-28T08:18:36.912Z,16.83
2018-04-28T08:19:36.936Z,16.79
2018-04-28T08:20:36.986Z,16.87
2018-04-28T08:21:36.983Z,16.81
2018-04-28T08:22:37.008Z,16.74
2018-04-28T08:23:37.030Z,16.72
2018-04-28T08:24:37.053Z,16.53
2018-04-28T08:25:37.077Z,16.57
2018-04-28T08:26:37.147Z,16.54
2018-04-28T08:27:37.123Z,16.49
2018-04-28T08:28:37.147Z,16.41
2018-04-28T08:29:37.169Z,16.39
2018-04-28T08:30:37.192Z,16.39
2018-04-28T08:31:37.216Z,16.35
2018-04-28T08:32:37.239Z,16.42
2018-04-28T08:33:37.263Z,16.33
2018-04-28T08:34:37.293Z,16.46
2018-04-28T08:35:37.308Z,16.42
2018-04-28T08:36:37.335Z,16.39
2018-04-28T08:37:37.355Z,16.47
2018-04-28T08:38:37.376Z,16.38
2018-04-28T08:39:37.401Z,16.49
2018-04-28T08:40:37.427Z,16.56
2018-04-28T08:41:37.447Z,16.57
2018-04-28T08:42:37.469Z,16.57
2018-04-28T08:43:37.492Z,16.60
2018-04-28T08:44:37.523Z,16.66
2018-04-28T08:45:37.627Z,16.69
2018-04-28T08:46:37.561Z,16.72
2018-04-28T08:47:37.585Z,16.58
2018-04-28T08:48:37.606Z,16.57
2018-04-28T08:49:37.630Z,16.53
2018-04-28T08:50:37.655Z,16.66
2018-04-28T08:51:37.677Z,16.84
2018-04-28T08:52:37.699Z,16.89
2018-04-28T08:53:37.722Z,16.79
2018-04-28T08:54:37.745Z,16.78
2018-04-28T08:55:37.767Z,16.84
2018-04-28T08:56:37.822Z,16.94
2018-04-28T08:57:37.813Z,16.96
2018-04-28T08:58:37.836Z,16.94
2018-04-28T08:59:37.858Z,17.09
2018-04-28T09:00:37.883Z,17.08
2018-04-28T09:01:37.905Z,17.11
2018-04-28T09:02:37.929Z,16.91
2018-04-28T09:03:38.026Z,16.81
2018-04-28T09:04:37.976Z,16.75
2018-04-28T09:05:38.000Z,16.93
2018-04-28T09:06:38.021Z,17.11
2018-04-28T09:07:38.045Z,17.29
2018-04-28T09:08:38.072Z,17.29
2018-04-28T09:09:38.092Z,17.22
2018-04-28T09:10:38.115Z,17.41
2018-04-28T09:11:38.140Z,17.54
2018-04-28T09:12:38.162Z,17.67
2018-04-28T09:13:38.185Z,17.83
2018-04-28T09:14:38.209Z,17.76
2018-04-28T09:15:38.233Z,17.83
2018-04-28T09:16:38.257Z,17.95
2018-04-28T09:17:38.280Z,17.97
2018-04-28T09:18:38.303Z,17.89
2018-04-28T09:19:38.420Z,17.90
2018-04-28T09:20:38.351Z,17.94
2018-04-28T09:21:38.375Z,18.00
2018-04-28T09:22:38.400Z,18.07
2018-04-28T09:23:38.423Z,18.07
2018-04-28T09:24:38.448Z,18.01
2018-04-28T09:25:38.471Z,18.11
2018-04-28T09:26:38.495Z,18.00
2018-04-28T09:27:38.594Z,18.07
2018-04-28T09:28:38.544Z,18.16
2018-04-28T09:29:38.569Z,17.97
2018-04-28T09:30:38.591Z,17.79
2018-04-28T09:31:38.616Z,17.70
2018-04-28T09:32:38.640Z,17.78
2018-04-28T09:33:38.665Z,17.90
2018-04-28T09:34:38.687Z,18.04
2018-04-28T09:35:38.712Z,18.07
2018-04-28T09:36:38.735Z,18.15
2018-04-28T09:37:38.764Z,18.05
2018-04-28T09:38:38.784Z,18.23
2018-04-28T09:39:38.809Z,18.20
2018-04-28T09:40:38.836Z,18.23
2018-04-28T09:41:38.857Z,18.19
2018-04-28T09:42:38.881Z,18.45
2018-04-28T09:43:38.904Z,18.52
2018-04-28T09:44:38.931Z,18.62
2018-04-28T09:45:38.955Z,18.28
2018-04-28T09:46:38.978Z,18.31
2018-04-28T09:47:39.003Z,18.20
2018-04-28T09:48:39.031Z,18.00
2018-04-28T09:49:39.051Z,17.94
2018-04-28T09:50:39.075Z,18.04
2018-04-28T09:51:39.101Z,18.10
2018-04-28T09:52:39.125Z,18.07
2018-04-28T09:53:39.150Z,18.04
2018-04-28T09:54:39.173Z,18.00
2018-04-28T09:55:39.202Z,18.03
2018-04-28T09:56:39.224Z,18.04
2018-04-28T09:57:39.245Z,17.82
2018-04-28T09:58:39.271Z,17.72
2018-04-28T09:59:39.295Z,17.71
2018-04-28T10:00:39.320Z,17.72
2018-04-28T10:01:39.344Z,17.79
2018-04-28T10:02:39.368Z,17.68
2018-04-28T10:03:39.392Z,17.59
2018-04-28T10:04:39.417Z,17.63
2018-04-28T10:05:39.442Z,17.67
2018-04-28T10:06:39.463Z,17.71
2018-04-28T10:07:39.489Z,17.71
2018-04-28T10:08:39.514Z,17.70
2018-04-28T10:09:39.538Z,17.56
2018-04-28T10:10:39.561Z,17.60
2018-04-28T10:11:39.586Z,17.51
2018-04-28T10:12:39.613Z,17.63
2018-04-28T10:13:39.634Z,17.79
2018-04-28T10:14:39.657Z,17.70
2018-04-28T10:15:39.685Z,17.83
2018-04-28T10:16:39.706Z,17.85
2018-04-28T10:17:39.732Z,17.89
2018-04-28T10:18:39.754Z,17.89
2018-04-28T10:19:39.776Z,17.98
2018-04-28T10:20:39.802Z,17.92
2018-04-28T10:21:39.826Z,17.95
2018-04-28T10:22:39.851Z,18.08
2018-04-28T10:23:39.875Z,17.79
2018-04-28T10:24:39.899Z,17.76
2018-04-28T10:25:39.922Z,17.85
2018-04-28T10:26:39.946Z,17.74
2018-04-28T10:27:39.972Z,17.94
2018-04-28T10:28:39.995Z,18.05
2018-04-28T10:29:40.019Z,17.92
2018-04-28T10:30:40.042Z,17.82
2018-04-28T10:31:40.066Z,17.72
2018-04-28T10:32:40.090Z,17.86
2018-04-28T10:33:40.116Z,18.00
2018-04-28T10:34:40.138Z,18.00
2018-04-28T10:35:40.165Z,18.04
2018-04-28T10:36:40.189Z,18.18
2018-04-28T10:37:40.215Z,18.05
2018-04-28T10:38:40.235Z,18.04
2018-04-28T10:39:40.260Z,18.00
2018-04-28T10:40:40.284Z,17.92
2018-04-28T10:41:40.311Z,17.78
2018-04-28T10:42:40.332Z,17.86
2018-04-28T10:43:40.355Z,17.92
2018-04-28T10:44:40.381Z,17.98
2018-04-28T10:45:40.405Z,17.92
2018-04-28T10:46:40.428Z,17.98
2018-04-28T10:47:40.453Z,17.85
2018-04-28T10:48:40.477Z,17.90
2018-04-28T10:49:40.502Z,17.74
2018-04-28T10:50:40.528Z,17.74
2018-04-28T10:51:40.549Z,17.70
2018-04-28T10:52:40.574Z,17.82
2018-04-28T10:53:40.676Z,17.79
2018-04-28T10:54:40.621Z,17.78
2018-04-28T10:55:40.645Z,17.74
2018-04-28T10:56:40.669Z,17.83
2018-04-28T10:57:40.701Z,17.86
2018-04-28T10:58:40.717Z,17.74
2018-04-28T10:59:40.741Z,17.79
2018-04-28T11:00:40.767Z,17.76
2018-04-28T11:01:40.789Z,17.86
2018-04-28T11:02:40.814Z,17.92
2018-04-28T11:03:40.838Z,17.90
2018-04-28T11:04:40.863Z,17.97
2018-04-28T11:05:40.886Z,18.10
2018-04-28T11:06:40.910Z,18.33
2018-04-28T11:07:40.934Z,18.45
2018-04-28T11:08:40.960Z,18.33
2018-04-28T11:09:40.984Z,18.49
2018-04-28T11:10:41.006Z,18.49
2018-04-28T11:11:41.032Z,18.56
2018-04-28T11:12:41.056Z,18.49
2018-04-28T11:13:41.081Z,18.53
2018-04-28T11:14:41.104Z,18.59
2018-04-28T11:15:41.129Z,18.68
2018-04-28T11:16:41.153Z,18.59
2018-04-28T11:17:41.178Z,18.56
2018-04-28T11:18:41.203Z,18.55
2018-04-28T11:19:41.255Z,18.41
2018-04-28T11:20:41.251Z,18.28
2018-04-28T11:21:41.276Z,18.19
2018-04-28T11:22:41.300Z,18.15
2018-04-28T11:23:41.325Z,18.22
2018-04-28T11:24:41.350Z,18.08
2018-04-28T11:25:41.488Z,18.15
2018-04-28T11:26:41.398Z,18.05
2018-04-28T11:27:41.423Z,18.03
2018-04-28T11:28:41.448Z,18.04
2018-04-28T11:29:41.471Z,17.95
2018-04-28T11:30:41.501Z,18.04
2018-04-28T11:31:41.521Z,17.97
2018-04-28T11:32:41.545Z,17.92
2018-04-28T11:33:41.570Z,17.89
2018-04-28T11:34:41.593Z,17.95
2018-04-28T11:35:41.618Z,17.74
2018-04-28T11:36:41.646Z,17.80
2018-04-28T11:37:41.669Z,17.90
2018-04-28T11:38:41.691Z,17.82
2018-04-28T11:39:41.715Z,17.97
2018-04-28T11:40:41.740Z,18.08
2018-04-28T11:41:41.764Z,18.03
2018-04-28T11:42:41.788Z,18.13
2018-04-28T11:43:41.885Z,18.15
2018-04-28T11:44:41.837Z,18.18
2018-04-28T11:45:41.861Z,18.19
2018-04-28T11:46:41.885Z,18.20
2018-04-28T11:47:41.909Z,18.31
2018-04-28T11:48:41.934Z,18.33
2018-04-28T11:49:41.958Z,18.52
2018-04-28T11:50:41.982Z,18.59
2018-04-28T11:51:42.007Z,18.47
2018-04-28T11:52:42.031Z,18.43
2018-04-28T11:53:42.058Z,18.63
2018-04-28T11:54:42.079Z,18.58
2018-04-28T11:55:42.104Z,18.74
2018-04-28T11:56:42.129Z,18.73
2018-04-28T11:57:42.156Z,18.74
2018-04-28T11:58:42.178Z,18.88
2018-04-28T11:59:42.203Z,18.92
2018-04-28T12:00:42.227Z,18.84
2018-04-28T12:01:42.252Z,18.66
2018-04-28T12:02:42.301Z,18.55
2018-04-28T12:03:42.304Z,18.33
2018-04-28T12:04:42.325Z,18.31
2018-04-28T12:05:42.418Z,18.16
2018-04-28T12:06:42.374Z,18.11
2018-04-28T12:07:42.399Z,18.22
2018-04-28T12:08:42.425Z,18.34
2018-04-28T12:09:42.449Z,18.34
2018-04-28T12:10:42.472Z,18.34
2018-04-28T12:11:42.497Z,18.34
2018-04-28T12:12:42.604Z,18.20
2018-04-28T12:13:42.550Z,18.13
2018-04-28T12:14:42.570Z,18.18
2018-04-28T12:15:42.595Z,18.05
2018-04-28T12:16:42.619Z,17.97
2018-04-28T12:17:42.644Z,17.95
2018-04-28T12:18:42.667Z,17.97
2018-04-28T12:19:42.693Z,17.92
2018-04-28T12:20:42.767Z,17.83
2018-04-28T12:21:42.741Z,17.92
2018-04-28T12:22:42.768Z,17.86
2018-04-28T12:23:42.792Z,17.90
2018-04-28T12:24:42.812Z,17.92
2018-04-28T12:25:42.838Z,18.01
2018-04-28T12:26:42.862Z,18.05
2018-04-28T12:27:42.886Z,18.05
2018-04-28T12:28:42.910Z,18.08
2018-04-28T12:29:42.940Z,18.07
2018-04-28T12:30:42.957Z,18.18
2018-04-28T12:31:42.982Z,18.34
2018-04-28T12:32:43.007Z,18.49
2018-04-28T12:33:43.033Z,18.65
2018-04-28T12:34:43.054Z,18.86
2018-04-28T12:35:43.079Z,19.11
2018-04-28T12:36:43.107Z,19.26
2018-04-28T12:37:43.128Z,19.22
2018-04-28T12:38:43.151Z,19.29
2018-04-28T12:39:43.178Z,18.96
2018-04-28T12:40:43.203Z,18.62
2018-04-28T12:41:43.225Z,18.37
2018-04-28T12:42:43.249Z,18.35
2018-04-28T12:43:43.273Z,18.44
2018-04-28T12:44:43.302Z,18.00
2018-04-28T12:45:43.323Z,18.11
2018-04-28T12:46:43.346Z,18.26
2018-04-28T12:47:43.371Z,18.44
2018-04-28T12:48:43.396Z,18.33
2018-04-28T12:49:43.421Z,18.52
2018-04-28T12:50:43.484Z,18.45
2018-04-28T12:51:43.467Z,18.49
2018-04-28T12:52:43.492Z,18.62